Welcome to Northern Hawkes Bay. New Zealand.
PWS Header
      nz Flag



Hit Counter


W3C Valid W3C Valid logo


    Wairoa

Select any of the Stations below to visit their websites.










Historic Data from Weather Underground
Select the location of interest below. Wairoa is the default. Please have patience, this Data is slow to load in.
Northern Hawkes Bay Historical Data
Daily Summary for May 13, 2017 Units:  English    Metric   Both
« Previous Day
Next Day »
Daily Weekly Monthly Yearly Custom
  High: Low: Average:
Temperature: 59.5 °F 46.9 °F 52.7 °F
Dew Point: 50.4 °F 41.5 °F 45.1 °F
Humidity: 97% 53% 77%
Wind Speed: 19.7mph 0mph 6.6mph
Wind Gust: 28.2mph - -
Wind- - WSW
Pressure: 30.3 in 30.1 in -
Precipitation: 0 in    
Historical Graphs
 
 
Tabular Data for May 13, 2017
Time Temperature Dew Point Pressure Wind Wind Speed Wind Gust Humidity Rainfall Rate (Hourly) solar
00:01 51.4 °F 48.6 °F 30.1 in SSW 15.2 mph 28.2 mph 90% 0.04 in 45 W/m2
00:06 52 °F 48.2 °F 30.1 in SSW 14.5 mph 24.4 mph 87% 0.04 in 48 W/m2
00:11 52.9 °F 49.1 °F 30.1 in SW 9.8 mph 24.4 mph 87% 0.04 in 63 W/m2
00:16 52.9 °F 48.2 °F 30.1 in SW 13.6 mph 24.4 mph 84% 0.04 in 56 W/m2
00:21 53.4 °F 48 °F 30.1 in SW 16.8 mph 27.3 mph 82% 0.04 in 64 W/m2
00:26 53.4 °F 47.5 °F 30.1 in SW 15.9 mph 27.3 mph 80% 0.04 in 43 W/m2
00:31 54.1 °F 48.4 °F 30.1 in SW 16.8 mph 27.3 mph 81% 0.02 in 19 W/m2
00:37 53.2 °F 47.8 °F 30.1 in SW 13.6 mph 26.6 mph 82% 0.02 in 12 W/m2
00:42 53.2 °F 48.2 °F 30.1 in SW 9.2 mph 25.9 mph 83% 0.02 in 12 W/m2
00:47 52.5 °F 47.8 °F 30.1 in SW 10.7 mph 25.9 mph 84% 0.01 in 9 W/m2
00:52 52.5 °F 48 °F 30.1 in SW 11.4 mph 22.1 mph 85% 0.01 in 6 W/m2
00:57 52 °F 48.2 °F 30.1 in SSW 9.2 mph 19 mph 87% 0 in 4 W/m2
01:02 51.8 °F 48.9 °F 30.1 in SW 18.3 mph 25.1 mph 90% 0 in 3 W/m2
01:07 51.4 °F 48.9 °F 30.1 in SW 14.5 mph 25.1 mph 91% 0 in 1 W/m2
01:12 52.3 °F 49.3 °F 30.1 in SW 15.2 mph 23.5 mph 89% 0 in 0 W/m2
01:17 52 °F 48.6 °F 30.1 in SW 10.7 mph 25.1 mph 88% 0.01 in 0 W/m2
01:22 51.4 °F 49.3 °F 30.1 in SSW 11.4 mph 25.1 mph 92% 0.01 in 0 W/m2
01:27 50.7 °F 48.7 °F 30.1 in SSW 13 mph 19.7 mph 93% 0.01 in 0 W/m2
01:32 51.6 °F 49.6 °F 30.1 in SW 12.1 mph 22.1 mph 93% 0.01 in 0 W/m2
01:37 52 °F 49.5 °F 30.1 in SW 18.3 mph 24.4 mph 91% 0.01 in 0 W/m2
01:42 52 °F 49.1 °F 30.1 in SSW 18.3 mph 25.1 mph 90% 0.01 in 0 W/m2
01:47 50.5 °F 48.4 °F 30.1 in SW 9.8 mph 25.1 mph 92% 0.01 in 0 W/m2
01:52 51.8 °F 49.3 °F 30.1 in SW 12.1 mph 25.1 mph 91% 0.01 in 0 W/m2
01:57 51.6 °F 49.5 °F 30.1 in SW 15.2 mph 19.7 mph 92% 0.01 in 0 W/m2
02:02 51.4 °F 49.5 °F 30.1 in WSW 4.5 mph 19.7 mph 93% 0.01 in 0 W/m2
02:08 51.3 °F 49.3 °F 30.1 in SW 13 mph 25.9 mph 93% 0.02 in 0 W/m2
02:13 50.9 °F 49.3 °F 30.1 in SW 13 mph 25.9 mph 94% 0.02 in 0 W/m2
02:18 51.1 °F 49.6 °F 30.1 in SW 15.9 mph 25.1 mph 95% 0.02 in 0 W/m2
02:23 51.1 °F 50 °F 30.1 in SW 9.8 mph 24.4 mph 96% 0.02 in 0 W/m2
02:28 51.3 °F 49.8 °F 30.1 in SW 11.4 mph 22.8 mph 95% 0.02 in 0 W/m2
02:33 51.3 °F 49.8 °F 30.1 in SW 13 mph 19 mph 95% 0.02 in 0 W/m2
02:38 51.4 °F 50.2 °F 30.1 in SW 13 mph 19.7 mph 95% 0.02 in 0 W/m2
02:43 51.1 °F 49.5 °F 30.2 in SW 19.7 mph 26.6 mph 94% 0.02 in 0 W/m2
02:48 51.4 °F 49.8 °F 30.2 in SW 11.4 mph 26.6 mph 94% 0.02 in 0 W/m2
02:53 51.3 °F 49.8 °F 30.2 in SW 17.4 mph 26.6 mph 95% 0.02 in 0 W/m2
02:58 51.1 °F 50 °F 30.2 in SW 13.6 mph 23.5 mph 96% 0.02 in 0 W/m2
03:03 51.8 °F 50.4 °F 30.2 in SW 5.4 mph 23.5 mph 95% 0.01 in 0 W/m2
03:08 51.1 °F 49.6 °F 30.2 in SW 9.8 mph 20.6 mph 95% 0.01 in 0 W/m2
03:13 51.1 °F 49.6 °F 30.2 in SW 10.7 mph 21.3 mph 95% 0.02 in 0 W/m2
03:18 51.1 °F 50 °F 30.2 in SW 15.9 mph 22.1 mph 96% 0.01 in 0 W/m2
03:23 51.8 °F 50.4 °F 30.2 in SW 13 mph 24.4 mph 95% 0.01 in 0 W/m2
03:28 50.9 °F 50.2 °F 30.2 in SW 14.5 mph 24.4 mph 97% 0.01 in 0 W/m2
03:33 51.1 °F 50 °F 30.2 in SW 12.1 mph 19 mph 96% 0.01 in 0 W/m2
03:38 51.1 °F 49.6 °F 30.2 in SW 19 mph 24.4 mph 95% 0.02 in 0 W/m2
03:43 50.5 °F 49.3 °F 30.2 in SW 11.4 mph 24.4 mph 95% 0.02 in 0 W/m2
03:48 51.1 °F 49.6 °F 30.2 in SSW 9.2 mph 24.4 mph 95% 0.02 in 0 W/m2
03:53 51.3 °F 49.8 °F 30.2 in SW 12.1 mph 25.1 mph 95% 0.02 in 0 W/m2
03:58 51.4 °F 49.8 °F 30.2 in SSW 11.4 mph 25.1 mph 94% 0.02 in 0 W/m2
04:03 51.3 °F 48.9 °F 30.2 in SSW 18.3 mph 22.1 mph 92% 0.02 in 0 W/m2
04:08 51.4 °F 49.3 °F 30.2 in SW 14.5 mph 22.1 mph 92% 0.04 in 0 W/m2
04:13 51.1 °F 49.1 °F 30.2 in SW 11.4 mph 21.3 mph 93% 0.02 in 0 W/m2
04:18 51.3 °F 49.3 °F 30.2 in SW 13.6 mph 25.1 mph 93% 0.02 in 0 W/m2
04:23 50.5 °F 48.6 °F 30.2 in SW 14.5 mph 25.1 mph 93% 0.02 in 0 W/m2
04:28 51.3 °F 49.3 °F 30.2 in SW 9.8 mph 21.3 mph 93% 0.02 in 0 W/m2
04:33 51.6 °F 49.1 °F 30.2 in SW 14.5 mph 22.1 mph 91% 0.02 in 0 W/m2
04:38 52 °F 48.2 °F 30.2 in SW 13 mph 22.1 mph 87% 0.02 in 0 W/m2
04:43 52 °F 47.7 °F 30.2 in SW 16.8 mph 22.1 mph 85% 0.02 in 0 W/m2
04:48 52.3 °F 47.7 °F 30.2 in SW 17.4 mph 22.8 mph 84% 0.02 in 0 W/m2
04:53 52.3 °F 48 °F 30.2 in SW 10.7 mph 22.8 mph 85% 0.02 in 0 W/m2
04:58 52.2 °F 47.8 °F 30.2 in SW 16.8 mph 22.8 mph 85% 0.02 in 0 W/m2
05:03 52.3 °F 48 °F 30.2 in SW 7.6 mph 20.6 mph 85% 0.02 in 0 W/m2
05:08 52.2 °F 47.8 °F 30.2 in SW 12.1 mph 22.1 mph 85% 0.01 in 0 W/m2
05:13 52.3 °F 47.3 °F 30.2 in SW 12.1 mph 24.4 mph 83% 0.01 in 0 W/m2
05:18 52.3 °F 47.3 °F 30.2 in SW 15.2 mph 27.3 mph 83% 0.01 in 0 W/m2
05:23 52.3 °F 47.3 °F 30.2 in SW 19 mph 27.3 mph 83% 0.01 in 0 W/m2
05:28 52.3 °F 47.3 °F 30.2 in SSW 14.5 mph 24.4 mph 83% 0.01 in 0 W/m2
05:33 52.3 °F 47.7 °F 30.2 in SW 8.3 mph 22.8 mph 84% 0.01 in 0 W/m2
05:38 52.2 °F 47.5 °F 30.2 in SW 10.7 mph 19.7 mph 84% 0 in 0 W/m2
05:43 52.2 °F 47.5 °F 30.2 in WSW 14.5 mph 26.6 mph 84% 0 in 0 W/m2
05:48 52.2 °F 47.1 °F 30.2 in SW 12.1 mph 26.6 mph 83% 0 in 0 W/m2
05:53 52.2 °F 47.1 °F 30.2 in SW 12.1 mph 22.1 mph 83% 0 in 0 W/m2
05:58 52.2 °F 47.1 °F 30.2 in SW 13 mph 22.1 mph 83% 0 in 0 W/m2
06:03 52.2 °F 47.1 °F 30.2 in SW 15.2 mph 21.3 mph 83% 0 in 0 W/m2
06:08 52 °F 46.9 °F 30.2 in SW 10.7 mph 19.7 mph 83% 0 in 0 W/m2
06:13 52 °F 46.9 °F 30.2 in SW 13 mph 23.5 mph 83% 0 in 0 W/m2
06:18 52 °F 46.9 °F 30.2 in SW 10.7 mph 23.5 mph 83% 0 in 0 W/m2
06:23 52.2 °F 47.1 °F 30.2 in SW 9.2 mph 23.5 mph 83% 0 in 0 W/m2
06:28 52.2 °F 46.8 °F 30.2 in SW 8.3 mph 22.8 mph 82% 0 in 0 W/m2
06:33 52.2 °F 46.8 °F 30.2 in SW 15.2 mph 22.8 mph 82% 0 in 0 W/m2
06:38 52.2 °F 46.8 °F 30.2 in SW 13 mph 22.1 mph 82% 0 in 0 W/m2
06:43 52.2 °F 46.8 °F 30.2 in West 14.5 mph 21.3 mph 82% 0 in 0 W/m2
06:48 52 °F 46.8 °F 30.2 in West 8.3 mph 21.3 mph 82% 0 in 0 W/m2
06:53 51.8 °F 46.6 °F 30.2 in WSW 11.4 mph 20.6 mph 82% 0 in 0 W/m2
06:54 51.8 °F 46.6 °F 30.2 in WSW 9.8 mph 20.6 mph 82% 0 in 0 W/m2
07:14 51.8 °F 46.6 °F 30.2 in SW 10.7 mph 16.8 mph 82% 0 in 0 W/m2
07:19 52 °F 46.8 °F 30.2 in SW 11.4 mph 21.3 mph 82% 0 in 0 W/m2
07:24 52.2 °F 46.8 °F 30.2 in WSW 9.2 mph 24.4 mph 82% 0 in 0 W/m2
07:29 51.8 °F 46.2 °F 30.2 in WSW 15.2 mph 24.4 mph 81% 0 in 0 W/m2
07:35 51.8 °F 45.9 °F 30.2 in WSW 9.2 mph 21.3 mph 80% 0 in 0 W/m2
07:40 51.6 °F 46.6 °F 30.2 in West 10.7 mph 22.1 mph 83% 0 in 0 W/m2
07:45 51.8 °F 46.6 °F 30.2 in WSW 10.7 mph 22.1 mph 82% 0 in 0 W/m2
07:50 51.6 °F 46.6 °F 30.2 in WSW 11.4 mph 20.6 mph 83% 0 in 0 W/m2
07:55 51.6 °F 46.6 °F 30.2 in WSW 7.6 mph 20.6 mph 83% 0 in 0 W/m2
08:00 51.6 °F 46.6 °F 30.2 in SW 9.2 mph 19.7 mph 83% 0 in 0 W/m2
08:06 51.6 °F 46.6 °F 30.2 in WSW 11.4 mph 19.7 mph 83% 0 in 0 W/m2
08:11 51.6 °F 46.2 °F 30.2 in WSW 7.6 mph 19 mph 82% 0 in 0 W/m2
08:16 51.6 °F 46.6 °F 30.2 in SW 13 mph 23.5 mph 83% 0 in 0 W/m2
08:21 51.6 °F 46.2 °F 30.2 in SW 9.2 mph 23.5 mph 82% 0 in 0 W/m2
08:26 51.6 °F 46.6 °F 30.2 in WSW 12.1 mph 22.1 mph 83% 0 in 0 W/m2
08:31 51.6 °F 46.6 °F 30.2 in West 17.4 mph 21.3 mph 83% 0 in 0 W/m2
08:36 51.4 °F 46.6 °F 30.2 in WSW 9.2 mph 21.3 mph 83% 0 in 0 W/m2
08:41 51.4 °F 46.6 °F 30.2 in WSW 13.6 mph 21.3 mph 83% 0 in 0 W/m2
08:46 51.4 °F 46.6 °F 30.2 in WSW 9.2 mph 21.3 mph 83% 0 in 0 W/m2
08:51 51.3 °F 46.2 °F 30.2 in SW 14.5 mph 22.1 mph 83% 0 in 0 W/m2
08:56 51.3 °F 46.2 °F 30.2 in WSW 9.8 mph 22.1 mph 83% 0 in 0 W/m2
09:01 51.3 °F 46.2 °F 30.2 in WSW 9.2 mph 19 mph 83% 0 in 0 W/m2
09:06 51.3 °F 46.2 °F 30.2 in WSW 8.3 mph 19.7 mph 83% 0 in 0 W/m2
09:11 51.3 °F 46.2 °F 30.2 in WSW 15.2 mph 25.1 mph 83% 0 in 0 W/m2
09:16 51.4 °F 46.6 °F 30.2 in WSW 13 mph 25.1 mph 83% 0 in 0 W/m2
09:21 51.4 °F 46.6 °F 30.2 in WSW 8.3 mph 18.3 mph 83% 0 in 0 W/m2
09:26 51.4 °F 46 °F 30.2 in WSW 9.2 mph 18.3 mph 82% 0 in 0 W/m2
09:31 51.6 °F 46.2 °F 30.2 in SW 12.1 mph 18.3 mph 82% 0 in 0 W/m2
09:36 51.6 °F 46.2 °F 30.2 in WSW 14.5 mph 19 mph 82% 0 in 0 W/m2
09:41 51.8 °F 45.9 °F 30.2 in WSW 10.7 mph 19 mph 80% 0 in 0 W/m2
09:46 51.8 °F 45.5 °F 30.2 in SW 11.4 mph 19 mph 79% 0 in 0 W/m2
09:51 51.8 °F 45.9 °F 30.2 in SW 10.7 mph 20.6 mph 80% 0 in 0 W/m2
09:56 51.6 °F 46.6 °F 30.2 in WSW 9.2 mph 20.6 mph 83% 0 in 0 W/m2
10:01 51.3 °F 46.2 °F 30.2 in WSW 11.4 mph 17.4 mph 83% 0 in 0 W/m2
10:06 51.1 °F 46 °F 30.2 in SW 6.9 mph 17.4 mph 83% 0 in 0 W/m2
10:11 50.9 °F 45.9 °F 30.2 in WSW 3.8 mph 17.4 mph 83% 0 in 0 W/m2
10:16 51.1 °F 46 °F 30.2 in WSW 8.3 mph 16.8 mph 83% 0 in 0 W/m2
10:21 51.1 °F 46 °F 30.2 in WSW 6 mph 16.8 mph 83% 0 in 0 W/m2
10:26 50.9 °F 45.9 °F 30.2 in WSW 3.8 mph 12.1 mph 83% 0 in 0 W/m2
10:31 50.9 °F 45.9 °F 30.2 in West 1.6 mph 11.4 mph 83% 0 in 0 W/m2
10:36 51.1 °F 45.9 °F 30.2 in West 7.6 mph 13.6 mph 82% 0 in 0 W/m2
10:40 51.4 °F 45.5 °F 30.2 in WSW 6.9 mph 15.9 mph 80% 0 in 0 W/m2
10:46 51.6 °F 45 °F 30.2 in WSW 15.2 mph 19 mph 78% 0 in 0 W/m2
10:51 51.8 °F 44.4 °F 30.2 in WSW 9.2 mph 19.7 mph 76% 0 in 0 W/m2
10:56 51.8 °F 44.4 °F 30.2 in WSW 8.3 mph 19.7 mph 76% 0 in 0 W/m2
11:01 51.8 °F 44.4 °F 30.2 in WSW 9.8 mph 18.3 mph 76% 0 in 0 W/m2
11:06 51.8 °F 44.4 °F 30.2 in WSW 5.4 mph 18.3 mph 76% 0 in 0 W/m2
11:12 51.6 °F 44.8 °F 30.2 in West 3.1 mph 15.9 mph 77% 0 in 0 W/m2
11:17 51.6 °F 44.8 °F 30.2 in WSW 9.2 mph 14.5 mph 77% 0 in 0 W/m2
11:21 51.6 °F 44.8 °F 30.2 in WSW 6.9 mph 14.5 mph 77% 0 in 0 W/m2
11:27 51.4 °F 44.8 °F 30.2 in WSW 10.7 mph 14.5 mph 78% 0 in 0 W/m2
11:32 51.3 °F 44.6 °F 30.2 in WSW 3.8 mph 14.5 mph 78% 0 in 0 W/m2
11:37 51.1 °F 45.5 °F 30.2 in Calm   14.5 mph 81% 0 in 0 W/m2
11:42 51.1 °F 45.5 °F 30.2 in WSW 4.5 mph 8.3 mph 81% 0 in 0 W/m2
11:47 50.9 °F 45.3 °F 30.2 in Calm   8.3 mph 81% 0 in 0 W/m2
11:52 50.7 °F 45.1 °F 30.2 in Calm   6.9 mph 81% 0 in 0 W/m2
11:57 50.4 °F 44.4 °F 30.2 in Calm   6 mph 80% 0 in 0 W/m2
12:02 50.2 °F 43.9 °F 30.2 in Calm   6 mph 79% 0 in 0 W/m2
12:06 50.2 °F 43.9 °F 30.2 in Calm   3.8 mph 79% 0 in 0 W/m2
12:12 50 °F 43.9 °F 30.2 in Calm   3.8 mph 79% 0 in 0 W/m2
12:13 50 °F 43.9 °F 30.2 in Calm   3.8 mph 79% 0 in 0 W/m2
12:18 49.8 °F 43.9 °F 30.2 in Calm   1.6 mph 80% 0 in 0 W/m2
12:23 49.6 °F 43.3 °F 30.2 in Calm   3.1 mph 79% 0 in 0 W/m2
12:28 49.6 °F 43.3 °F 30.2 in Calm   3.1 mph 79% 0 in 0 W/m2
12:33 49.6 °F 43.2 °F 30.2 in Calm   6 mph 78% 0 in 0 W/m2
12:38 49.8 °F 43 °F 30.2 in WNW 0.7 mph 6 mph 77% 0 in 0 W/m2
12:43 49.8 °F 43 °F 30.2 in Calm   3.8 mph 77% 0 in 0 W/m2
12:47 49.6 °F 42.6 °F 30.2 in Calm   3.8 mph 77% 0 in 0 W/m2
12:52 49.5 °F 42.6 °F 30.2 in Calm   1.6 mph 77% 0 in 0 W/m2
12:58 49.5 °F 42.6 °F 30.2 in Calm   4.5 mph 77% 0 in 0 W/m2
13:02 49.5 °F 42.6 °F 30.2 in Calm   5.4 mph 77% 0 in 0 W/m2
13:08 49.5 °F 42.6 °F 30.2 in Calm   5.4 mph 77% 0 in 0 W/m2
13:13 49.5 °F 43 °F 30.2 in Calm   4.5 mph 78% 0 in 0 W/m2
13:18 49.6 °F 43.2 °F 30.2 in Calm   3.8 mph 78% 0 in 0 W/m2
13:23 49.5 °F 42.6 °F 30.2 in Calm   4.5 mph 77% 0 in 0 W/m2
13:28 49.5 °F 42.6 °F 30.2 in Calm   5.4 mph 77% 0 in 0 W/m2
13:33 49.5 °F 42.6 °F 30.2 in WSW 0.7 mph 5.4 mph 77% 0 in 0 W/m2
13:37 49.5 °F 42.6 °F 30.2 in Calm   4.5 mph 77% 0 in 0 W/m2
13:42 49.5 °F 42.6 °F 30.2 in Calm   3.8 mph 77% 0 in 0 W/m2
13:48 49.5 °F 42.6 °F 30.2 in Calm   3.8 mph 77% 0 in 0 W/m2
13:53 49.6 °F 42.6 °F 30.2 in West 3.1 mph 6.9 mph 77% 0 in 0 W/m2
13:57 49.8 °F 42.6 °F 30.2 in Calm   6.9 mph 76% 0 in 0 W/m2
14:02 49.8 °F 42.6 °F 30.2 in Calm   6.9 mph 76% 0 in 0 W/m2
14:08 49.5 °F 42.3 °F 30.2 in Calm   2.2 mph 76% 0 in 0 W/m2
14:13 49.1 °F 42.3 °F 30.2 in Calm     77% 0 in 0 W/m2
14:17 48.9 °F 42.1 °F 30.2 in Calm     77% 0 in 0 W/m2
14:23 48.7 °F 41.9 °F 30.2 in Calm     77% 0 in 0 W/m2
14:27 48.4 °F 41.7 °F 30.2 in Calm     78% 0 in 0 W/m2
14:32 48.2 °F 42.1 °F 30.2 in Calm     79% 0 in 0 W/m2
14:38 48 °F 42.4 °F 30.2 in Calm     81% 0 in 0 W/m2
14:43 48 °F 42.4 °F 30.2 in Calm     81% 0 in 0 W/m2
14:47 48 °F 42.4 °F 30.2 in Calm     81% 0 in 0 W/m2
14:52 47.8 °F 42.6 °F 30.2 in Calm     82% 0 in 0 W/m2
14:58 47.8 °F 42.6 °F 30.2 in Calm     82% 0 in 0 W/m2
15:00 47.8 °F 42.6 °F 30.2 in Calm     82% 0 in 0 W/m2
15:05 47.7 °F 42.4 °F 30.2 in Calm     82% 0 in 2 W/m2
15:10 47.7 °F 42.4 °F 30.2 in Calm     82% 0 in 4 W/m2
15:16 47.7 °F 42.8 °F 30.2 in Calm     83% 0 in 6 W/m2
15:21 47.5 °F 42.6 °F 30.2 in Calm     83% 0 in 8 W/m2
15:25 47.3 °F 42.4 °F 30.2 in Calm   1.6 mph 83% 0 in 12 W/m2
15:30 47.1 °F 42.3 °F 30.2 in Calm   3.1 mph 83% 0 in 15 W/m2
15:36 46.9 °F 42.1 °F 30.2 in Calm   3.1 mph 83% 0 in 18 W/m2
15:41 47.1 °F 42.3 °F 30.2 in Calm   3.1 mph 83% 0 in 21 W/m2
15:45 47.3 °F 42.4 °F 30.2 in Calm   3.1 mph 83% 0 in 26 W/m2
15:50 47.3 °F 42.4 °F 30.2 in Calm   3.8 mph 83% 0 in 33 W/m2
15:55 47.5 °F 42.6 °F 30.2 in NW 2.2 mph 3.8 mph 83% 0 in 42 W/m2
16:00 47.8 °F 42.6 °F 30.2 in NW 0.7 mph 5.4 mph 82% 0 in 50 W/m2
16:06 48.2 °F 42.3 °F 30.2 in Calm   5.4 mph 80% 0 in 51 W/m2
16:11 48.4 °F 42.3 °F 30.2 in NNW 2.2 mph 4.5 mph 79% 0 in 56 W/m2
16:15 48.6 °F 42.1 °F 30.2 in NNW 0.7 mph 5.4 mph 78% 0 in 66 W/m2
16:20 49.5 °F 43.2 °F 30.2 in Calm   5.4 mph 79% 0 in 180 W/m2
16:23 50 °F 43.2 °F 30.2 in North 0.7 mph 5.4 mph 77% 0 in 190 W/m2
16:27 51.3 °F 43.5 °F 30.2 in North 1.6 mph 4.5 mph 75% 0 in 196 W/m2
16:32 51.4 °F 43.2 °F 30.2 in North 2.2 mph 5.4 mph 73% 0 in 188 W/m2
16:38 51.4 °F 43.2 °F 30.2 in NNW 0.7 mph 5.4 mph 73% 0 in 101 W/m2
16:43 50.9 °F 42.6 °F 30.2 in Calm   6 mph 73% 0 in 106 W/m2
16:47 50.7 °F 42.4 °F 30.2 in Calm   6 mph 73% 0 in 93 W/m2
16:52 51.3 °F 43.3 °F 30.3 in Calm   1.6 mph 74% 0 in 254 W/m2
16:57 52.3 °F 43.5 °F 30.3 in Calm   1.6 mph 72% 0 in 269 W/m2
17:02 53.1 °F 44.2 °F 30.3 in Calm   1.6 mph 72% 0 in 282 W/m2
17:07 52.9 °F 43 °F 30.3 in NW 1.6 mph 6 mph 69% 0 in 292 W/m2
17:13 53.2 °F 43.7 °F 30.3 in NW 3.1 mph 6 mph 70% 0 in 288 W/m2
17:17 53.4 °F 43.5 °F 30.3 in NW 0.7 mph 5.4 mph 69% 0 in 240 W/m2
17:22 53.2 °F 43.3 °F 30.3 in Calm   5.4 mph 69% 0 in 147 W/m2
17:27 52.7 °F 43.2 °F 30.3 in Calm   4.5 mph 70% 0 in 160 W/m2
17:32 52.7 °F 43.2 °F 30.3 in Calm   2.2 mph 70% 0 in 155 W/m2
17:37 52.9 °F 43.3 °F 30.3 in Calm   1.6 mph 70% 0 in 178 W/m2
17:42 53.2 °F 43.3 °F 30.3 in Calm   3.8 mph 69% 0 in 180 W/m2
17:47 53.8 °F 44.2 °F 30.3 in Calm   3.8 mph 70% 0 in 191 W/m2
17:52 54.7 °F 44.2 °F 30.3 in Calm   3.1 mph 68% 0 in 193 W/m2
17:58 54.9 °F 44.1 °F 30.3 in Calm     67% 0 in 182 W/m2
18:02 55.2 °F 44.1 °F 30.3 in Calm     66% 0 in 190 W/m2
18:07 55.4 °F 44.6 °F 30.3 in West 0.7 mph 3.8 mph 67% 0 in 181 W/m2
18:12 55.2 °F 44.1 °F 30.3 in Calm   3.8 mph 66% 0 in 183 W/m2
18:17 54.7 °F 43.2 °F 30.3 in Calm   3.8 mph 65% 0 in 189 W/m2
18:22 54.5 °F 43.3 °F 30.3 in Calm     66% 0 in 191 W/m2
18:28 55 °F 43.9 °F 30.3 in Calm     66% 0 in 182 W/m2
18:32 54.9 °F 43.7 °F 30.3 in Calm     66% 0 in 189 W/m2
18:37 54.7 °F 43.5 °F 30.3 in Calm     66% 0 in 186 W/m2
18:42 54.5 °F 43.3 °F 30.3 in SW 5.4 mph 10.7 mph 66% 0 in 186 W/m2
18:47 54.3 °F 42.8 °F 30.3 in Calm   10.7 mph 65% 0 in 179 W/m2
18:52 54.3 °F 43.2 °F 30.3 in Calm   8.3 mph 66% 0 in 137 W/m2
18:57 54.3 °F 42.8 °F 30.3 in Calm   6.9 mph 65% 0 in 159 W/m2
19:02 54.5 °F 43 °F 30.3 in West 2.2 mph 7.6 mph 65% 0 in 167 W/m2
19:07 54.5 °F 42.6 °F 30.3 in Calm   9.2 mph 64% 0 in 143 W/m2
19:12 55.2 °F 43.3 °F 30.3 in WNW 0.7 mph 9.2 mph 64% 0 in 211 W/m2
19:17 55.2 °F 43 °F 30.3 in WSW 0.7 mph 9.8 mph 63% 0 in 236 W/m2
19:22 55.8 °F 43 °F 30.3 in WSW 3.8 mph 11.4 mph 62% 0 in 378 W/m2
19:27 56.3 °F 43 °F 30.3 in SW 6 mph 14.5 mph 61% 0 in 378 W/m2
19:32 56.7 °F 43.3 °F 30.3 in SW 3.8 mph 15.2 mph 61% 0 in 375 W/m2
19:37 56.7 °F 43 °F 30.3 in West 2.2 mph 15.2 mph 60% 0 in 389 W/m2
19:42 57.2 °F 43.9 °F 30.3 in Calm   12.1 mph 61% 0 in 379 W/m2
19:47 57.9 °F 43.7 °F 30.3 in WSW 8.3 mph 13 mph 59% 0 in 383 W/m2
19:52 57.4 °F 43.2 °F 30.3 in WSW 4.5 mph 13 mph 59% 0 in 374 W/m2
19:57 57.6 °F 43.9 °F 30.3 in WSW 6.9 mph 13 mph 60% 0 in 368 W/m2
20:02 57.4 °F 42.3 °F 30.3 in SW 9.2 mph 13.6 mph 57% 0 in 358 W/m2
20:08 57.2 °F 43.5 °F 30.3 in WSW 5.4 mph 14.5 mph 60% 0 in 349 W/m2
20:13 57.6 °F 43 °F 30.3 in WSW 8.3 mph 15.2 mph 58% 0 in 341 W/m2
20:18 57.2 °F 42.6 °F 30.3 in SW 8.3 mph 15.2 mph 58% 0 in 330 W/m2
20:23 57.7 °F 42.6 °F 30.3 in WSW 13 mph 17.4 mph 57% 0 in 316 W/m2
20:28 57.4 °F 42.3 °F 30.3 in SW 6.9 mph 17.4 mph 57% 0 in 298 W/m2
20:33 58.3 °F 43.2 °F 30.3 in SW 9.8 mph 17.4 mph 57% 0 in 275 W/m2
20:38 57.6 °F 42.4 °F 30.3 in WSW 7.6 mph 13.6 mph 57% 0 in 244 W/m2
20:43 57.9 °F 42.8 °F 30.3 in WSW 4.5 mph 13.6 mph 57% 0 in 222 W/m2
20:48 57.6 °F 42.1 °F 30.3 in SW 9.2 mph 13.6 mph 56% 0 in 201 W/m2
20:53 57.7 °F 43.2 °F 30.3 in WSW 6 mph 14.5 mph 58% 0 in 167 W/m2
20:58 57.9 °F 43.7 °F 30.3 in WSW 6.9 mph 14.5 mph 59% 0 in 136 W/m2
21:03 57.7 °F 42.6 °F 30.2 in SW 6.9 mph 14.5 mph 57% 0 in 120 W/m2
21:08 57.9 °F 42.3 °F 30.3 in SW 6 mph 14.5 mph 56% 0 in 110 W/m2
21:13 58.1 °F 43.3 °F 30.2 in SW 7.6 mph 13 mph 58% 0 in 107 W/m2
21:18 58.3 °F 42.6 °F 30.2 in SW 3.8 mph 12.1 mph 56% 0 in 98 W/m2
21:23 58.3 °F 42.3 °F 30.3 in WSW 2.2 mph 12.1 mph 55% 0 in 78 W/m2
21:28 58.5 °F 41.9 °F 30.2 in WSW 7.6 mph 13.6 mph 54% 0 in 65 W/m2
21:33 57.9 °F 41.9 °F 30.2 in SW 6 mph 13.6 mph 55% 0 in 63 W/m2
21:38 57.7 °F 41.7 °F 30.2 in SW 7.6 mph 12.1 mph 55% 0 in 60 W/m2
21:43 58.3 °F 42.3 °F 30.2 in SW 3.8 mph 12.1 mph 55% 0 in 59 W/m2
21:48 58.1 °F 41.5 °F 30.2 in SW 4.5 mph 12.1 mph 54% 0 in 60 W/m2
21:53 58.6 °F 42.4 °F 30.2 in SW 3.1 mph 9.8 mph 55% 0 in 61 W/m2
21:58 58.5 °F 42.4 °F 30.2 in SSW 5.4 mph 9.8 mph 55% 0 in 63 W/m2
22:03 59.4 °F 43.2 °F 30.2 in SW 4.5 mph 9.2 mph 55% 0 in 64 W/m2
22:08 58.6 °F 41.5 °F 30.2 in SW 4.5 mph 10.7 mph 53% 0 in 68 W/m2
22:13 59.2 °F 42.1 °F 30.2 in SW 6 mph 10.7 mph 53% 0 in 69 W/m2
22:19 59.4 °F 42.6 °F 30.2 in SW 4.5 mph 10.7 mph 54% 0 in 72 W/m2
22:25 58.6 °F 42.1 °F 30.2 in SW 3.1 mph 13 mph 54% 0 in 90 W/m2
22:30 58.6 °F 42.4 °F 30.2 in SW 6.9 mph 13 mph 55% 0 in 132 W/m2
22:35 58.3 °F 42.6 °F 30.2 in SW 6.9 mph 11.4 mph 56% 0 in 183 W/m2
22:40 58.8 °F 43.2 °F 30.2 in SW 8.3 mph 11.4 mph 56% 0 in 190 W/m2
22:45 58.3 °F 42.3 °F 30.2 in SW 6 mph 11.4 mph 55% 0 in 165 W/m2
22:50 58.6 °F 43.9 °F 30.2 in SW 4.5 mph 11.4 mph 58% 0 in 192 W/m2
22:55 59.4 °F 43.7 °F 30.2 in SW 1.6 mph 9.8 mph 56% 0 in 209 W/m2
23:00 59.4 °F 42.6 °F 30.2 in SW 3.8 mph 9.2 mph 54% 0 in 204 W/m2
23:05 59.2 °F 43 °F 30.2 in SW 3.1 mph 9.2 mph 55% 0 in 199 W/m2
23:10 59.5 °F 43.3 °F 30.2 in SW 2.2 mph 7.6 mph 55% 0 in 193 W/m2
23:15 59.4 °F 42.6 °F 30.2 in WSW 2.2 mph 6.9 mph 54% 0 in 185 W/m2
23:20 59.2 °F 43 °F 30.2 in WSW 1.6 mph 6.9 mph 55% 0 in 176 W/m2
23:25 59.2 °F 43 °F 30.2 in Calm   6.9 mph 55% 0 in 163 W/m2
23:30 59.5 °F 43.9 °F 30.2 in WSW 2.2 mph 6.9 mph 56% 0 in 153 W/m2
23:35 59.2 °F 43 °F 30.2 in Calm   4.5 mph 55% 0 in 143 W/m2
23:40 58.8 °F 44.1 °F 30.2 in West 1.6 mph 5.4 mph 58% 0 in 129 W/m2
23:45 58.8 °F 44.1 °F 30.2 in West 3.1 mph 5.4 mph 58% 0 in 117 W/m2
23:50 59 °F 44.2 °F 30.2 in West 0.7 mph 5.4 mph 58% 0 in 102 W/m2
23:55 59.2 °F 44.4 °F 30.2 in Calm   5.4 mph 58% 0 in 88 W/m2
Northern Hawkes Bay. New Zealand Historic Data
Compliments of Weather Underground - 2 mb